Time;durP1;ratioP1;P1;durP2;ratioP2;P2;SDS_P1;SDS_P2;PMS_P1;PMS_P2;Temp;Humidity;BMP_temperature;BMP_pressure;BME280_temperature;BME280_humidity;BME280_pressure;Samples;Min_cycle;Max_cycle;Signal;HPM_P1;HPM_P2
2022/04/27 00:02:18;;;;;;;;;;;6.80;99.90;;;;;;5076661;28;20030;-83
2022/04/27 00:04:43;;;;;;;;;;;6.80;99.90;;;;;;5068925;28;19912;-84
2022/04/27 00:07:09;;;;;;;;;;;6.80;99.90;;;;;;5059800;28;19919;-84
2022/04/27 00:09:35;;;;;;;;;;;6.80;99.90;;;;;;5049129;28;20149;-84
2022/04/27 00:12:01;;;;;;;;;;;6.80;99.90;;;;;;5059977;28;19916;-84
2022/04/27 00:14:30;;;;;;;;;;;6.80;99.90;;;;;;5059383;28;20356;-84
2022/04/27 00:16:56;;;;;;;;;;;6.80;99.90;;;;;;5076478;28;19923;-83
2022/04/27 00:19:22;;;;;;;;;;;6.70;99.90;;;;;;5092451;28;19927;-83
2022/04/27 00:21:47;;;;;;;;;;;6.70;99.90;;;;;;5059635;28;20018;-84
2022/04/27 00:24:13;;;;;;;;;;;6.70;99.90;;;;;;5050014;28;19986;-84
2022/04/27 00:26:38;;;;;;;;;;;6.60;99.90;;;;;;5074637;28;19912;-84
2022/04/27 00:29:04;;;;;;;;;;;6.60;99.90;;;;;;5058457;28;20388;-83
2022/04/27 00:31:31;;;;;;;;;;;6.60;99.90;;;;;;5094713;28;19918;-86
2022/04/27 00:33:57;;;;;;;;;;;6.60;99.90;;;;;;5065982;22;19933;-83
2022/04/27 00:36:23;;;;;;;;;;;6.50;99.90;;;;;;5033235;28;19973;-83
2022/04/27 00:38:48;;;;;;;;;;;6.50;99.90;;;;;;5015230;28;19917;-83
2022/04/27 00:41:14;;;;;;;;;;;6.50;99.90;;;;;;5015276;28;20287;-83
2022/04/27 00:43:41;;;;;;;;;;;6.40;99.90;;;;;;5014727;28;19943;-83
2022/04/27 00:46:06;;;;;;;;;;;6.30;99.90;;;;;;5014528;28;19939;-83
2022/04/27 00:48:32;;;;;;;;;;;6.30;99.90;;;;;;5014714;28;19921;-83
2022/04/27 00:51:02;;;;;;;;;;;6.20;99.90;;;;;;5047445;28;19917;-83
2022/04/27 00:53:28;;;;;;;;;;;6.20;99.90;;;;;;5006227;28;19916;-83
2022/04/27 00:55:53;;;;;;;;;;;6.10;99.90;;;;;;5034151;28;19913;-83
2022/04/27 00:58:19;;;;;;;;;;;6.10;99.90;;;;;;4998009;28;20378;-83
2022/04/27 01:00:44;;;;;;;;;;;6.00;99.90;;;;;;5031389;28;19960;-83
2022/04/27 01:03:10;;;;;;;;;;;6.00;99.90;;;;;;5046863;28;19917;-83
2022/04/27 01:05:35;;;;;;;;;;;5.90;99.90;;;;;;5032530;28;19971;-83
2022/04/27 01:08:01;;;;;;;;;;;5.90;99.90;;;;;;5034791;28;19971;-83
2022/04/27 01:10:27;;;;;;;;;;;5.90;99.90;;;;;;5049015;28;20114;-82
2022/04/27 01:12:56;;;;;;;;;;;5.80;99.90;;;;;;5014146;28;20004;-83
2022/04/27 01:15:32;;;;;;;;;;;5.80;99.90;;;;;;4998381;28;19917;-83
2022/04/27 01:17:58;;;;;;;;;;;5.80;99.90;;;;;;5014778;28;19944;-83
2022/04/27 01:20:23;;;;;;;;;;;5.80;99.90;;;;;;5013960;28;19921;-83
2022/04/27 01:22:49;;;;;;;;;;;5.80;99.90;;;;;;5030889;28;20280;-83
2022/04/27 01:25:14;;;;;;;;;;;5.70;99.90;;;;;;4986620;28;19921;-83
2022/04/27 01:27:43;;;;;;;;;;;5.70;99.90;;;;;;5028403;28;19913;-83
2022/04/27 01:30:10;;;;;;;;;;;5.70;99.90;;;;;;5012632;28;20289;-83
2022/04/27 01:32:36;;;;;;;;;;;5.70;99.90;;;;;;5013958;28;19966;-83
2022/04/27 01:35:02;;;;;;;;;;;5.60;99.90;;;;;;5014331;28;20007;-83
2022/04/27 01:40:11;;;;;;;;;;;5.50;99.90;;;;;;5016598;28;19964;-83
2022/04/27 01:42:37;;;;;;;;;;;5.50;99.90;;;;;;4997683;28;20331;-83
2022/04/27 01:45:03;;;;;;;;;;;5.50;99.90;;;;;;5013938;28;19943;-83
2022/04/27 01:47:28;;;;;;;;;;;5.40;99.90;;;;;;5011489;28;19971;-83
2022/04/27 01:49:54;;;;;;;;;;;5.40;99.90;;;;;;5041621;28;19917;-82
2022/04/27 01:55:04;;;;;;;;;;;5.30;99.90;;;;;;5041468;28;19947;-83
2022/04/27 01:57:29;;;;;;;;;;;5.20;99.90;;;;;;5002636;28;19980;-83
2022/04/27 01:59:56;;;;;;;;;;;5.20;99.90;;;;;;5029994;28;19917;-83
2022/04/27 02:02:21;;;;;;;;;;;5.10;99.90;;;;;;5030811;28;20012;-83
2022/04/27 02:04:47;;;;;;;;;;;5.10;99.90;;;;;;5017219;28;20051;-83
2022/04/27 02:07:12;;;;;;;;;;;5.00;99.90;;;;;;5046267;28;19917;-83
2022/04/27 02:09:38;;;;;;;;;;;5.00;99.90;;;;;;5006595;28;19917;-83
2022/04/27 02:12:04;;;;;;;;;;;4.90;99.90;;;;;;5008320;28;20116;-83
2022/04/27 02:14:30;;;;;;;;;;;4.90;99.90;;;;;;5019097;28;19956;-83
2022/04/27 02:16:55;;;;;;;;;;;4.80;99.90;;;;;;5013274;28;19943;-83
2022/04/27 02:19:21;;;;;;;;;;;4.70;99.90;;;;;;5033165;28;20290;-83
2022/04/27 02:21:47;;;;;;;;;;;4.80;99.90;;;;;;5002414;28;19921;-83
2022/04/27 02:24:12;;;;;;;;;;;4.70;99.90;;;;;;5029658;28;19928;-83
2022/04/27 02:26:38;;;;;;;;;;;4.70;99.90;;;;;;5013755;28;19913;-83
2022/04/27 02:29:04;;;;;;;;;;;4.70;99.90;;;;;;5062098;28;19999;-83
2022/04/27 02:31:29;;;;;;;;;;;4.70;99.90;;;;;;4996771;28;19913;-83
2022/04/27 02:33:55;;;;;;;;;;;4.60;99.90;;;;;;5012852;28;19964;-83
2022/04/27 02:36:21;;;;;;;;;;;4.60;99.90;;;;;;5013422;28;19952;-83
2022/04/27 02:38:46;;;;;;;;;;;4.60;99.90;;;;;;5014625;28;19923;-83
2022/04/27 02:41:11;;;;;;;;;;;4.60;99.90;;;;;;5028622;28;20295;-83
2022/04/27 02:43:37;;;;;;;;;;;4.50;99.90;;;;;;5013087;28;19917;-82
2022/04/27 02:46:02;;;;;;;;;;;4.50;99.90;;;;;;5031089;28;19912;-83
2022/04/27 02:48:28;;;;;;;;;;;4.40;99.90;;;;;;5027531;28;19951;-83
2022/04/27 02:53:38;;;;;;;;;;;4.40;99.90;;;;;;5016368;28;19944;-83
2022/04/27 02:56:03;;;;;;;;;;;4.40;99.90;;;;;;5046105;28;19909;-83
2022/04/27 02:58:29;;;;;;;;;;;4.30;99.90;;;;;;5013395;28;20000;-83
2022/04/27 03:00:54;;;;;;;;;;;4.30;99.90;;;;;;5028956;28;19917;-83
2022/04/27 03:03:20;;;;;;;;;;;4.30;99.90;;;;;;5029475;28;19963;-83
2022/04/27 03:05:46;;;;;;;;;;;4.30;99.90;;;;;;4997814;28;20455;-83
2022/04/27 03:08:11;;;;;;;;;;;4.30;99.90;;;;;;5028659;28;20247;-83
2022/04/27 03:10:37;;;;;;;;;;;4.30;99.90;;;;;;5012480;28;19932;-83
2022/04/27 03:13:02;;;;;;;;;;;4.20;99.90;;;;;;5046979;28;19917;-83
2022/04/27 03:15:28;;;;;;;;;;;4.20;99.90;;;;;;5016076;28;19917;-84
2022/04/27 03:20:37;;;;;;;;;;;4.20;99.90;;;;;;5032297;28;19943;-83
2022/04/27 03:23:03;;;;;;;;;;;4.20;99.90;;;;;;4999812;28;19913;-83
2022/04/27 03:25:28;;;;;;;;;;;4.20;99.90;;;;;;5034846;28;19999;-84
2022/04/27 03:27:54;;;;;;;;;;;4.20;99.90;;;;;;5012775;28;20415;-83
2022/04/27 03:30:19;;;;;;;;;;;4.20;99.90;;;;;;5012212;28;20334;-84
2022/04/27 03:32:45;;;;;;;;;;;4.20;99.90;;;;;;5012137;28;19979;-83
2022/04/27 03:35:10;;;;;;;;;;;4.20;99.90;;;;;;5012579;28;20561;-84
2022/04/27 03:37:36;;;;;;;;;;;4.20;99.90;;;;;;5012596;28;19917;-84
2022/04/27 03:40:02;;;;;;;;;;;4.20;99.90;;;;;;5012573;28;19949;-83
2022/04/27 03:42:27;;;;;;;;;;;4.20;99.90;;;;;;5028385;28;20026;-84
2022/04/27 03:44:53;;;;;;;;;;;4.20;99.90;;;;;;5032360;28;19920;-83
2022/04/27 03:47:18;;;;;;;;;;;4.20;99.90;;;;;;5018071;28;20304;-83
2022/04/27 03:49:43;;;;;;;;;;;4.10;99.90;;;;;;5011586;28;19913;-84
2022/04/27 03:52:09;;;;;;;;;;;4.10;99.90;;;;;;5012750;28;19924;-84
2022/04/27 03:54:35;;;;;;;;;;;4.10;99.90;;;;;;5015253;28;20361;-83
2022/04/27 03:57:00;;;;;;;;;;;4.10;99.90;;;;;;4999835;28;19925;-83
2022/04/27 03:59:26;;;;;;;;;;;4.10;99.90;;;;;;5032192;28;20024;-83
2022/04/27 04:01:51;;;;;;;;;;;4.10;99.90;;;;;;5016240;28;19921;-84
2022/04/27 04:04:17;;;;;;;;;;;4.00;99.90;;;;;;5015783;28;19940;-83
2022/04/27 04:06:42;;;;;;;;;;;4.00;99.90;;;;;;5032587;28;19963;-84
2022/04/27 04:09:09;;;;;;;;;;;4.00;99.90;;;;;;4999524;28;19960;-84
2022/04/27 04:11:35;;;;;;;;;;;4.00;99.90;;;;;;5032830;28;19963;-83
2022/04/27 04:14:00;;;;;;;;;;;4.00;99.90;;;;;;5015606;28;19917;-83
2022/04/27 04:16:26;;;;;;;;;;;4.00;99.90;;;;;;5015325;28;20418;-83
2022/04/27 04:18:51;;;;;;;;;;;4.10;99.90;;;;;;5015526;28;19974;-83
2022/04/27 04:21:17;;;;;;;;;;;4.10;99.90;;;;;;5015910;28;20287;-83
2022/04/27 04:23:42;;;;;;;;;;;4.20;99.90;;;;;;4999234;28;19921;-84
2022/04/27 04:28:52;;;;;;;;;;;4.30;99.90;;;;;;5018562;28;19923;-84
2022/04/27 04:31:18;;;;;;;;;;;4.30;99.90;;;;;;5048328;28;19913;-84
2022/04/27 04:33:43;;;;;;;;;;;4.30;99.90;;;;;;5015606;28;20409;-83
2022/04/27 04:36:09;;;;;;;;;;;4.40;99.90;;;;;;5015542;28;20011;-83
2022/04/27 04:38:34;;;;;;;;;;;4.40;99.90;;;;;;4999061;28;19917;-83
2022/04/27 04:41:00;;;;;;;;;;;4.40;99.90;;;;;;5015236;28;19913;-83
2022/04/27 04:43:25;;;;;;;;;;;4.50;99.90;;;;;;5038228;28;20403;-83
2022/04/27 04:45:51;;;;;;;;;;;4.50;99.90;;;;;;5015177;28;19924;-83
2022/04/27 04:48:16;;;;;;;;;;;4.60;99.90;;;;;;5027209;28;19909;-84
2022/04/27 04:50:42;;;;;;;;;;;4.70;99.90;;;;;;5014984;28;19921;-83
2022/04/27 04:53:08;;;;;;;;;;;4.70;99.90;;;;;;5015056;28;19971;-83
2022/04/27 04:55:33;;;;;;;;;;;4.80;99.90;;;;;;5015064;28;20342;-83
2022/04/27 04:57:59;;;;;;;;;;;4.90;99.90;;;;;;5031252;28;19925;-84
2022/04/27 05:00:25;;;;;;;;;;;4.90;99.90;;;;;;5015025;28;19963;-83
2022/04/27 05:02:50;;;;;;;;;;;4.90;99.90;;;;;;5014288;28;19914;-83
2022/04/27 05:05:16;;;;;;;;;;;4.80;99.90;;;;;;5004839;28;19949;-83
2022/04/27 05:07:41;;;;;;;;;;;4.80;99.90;;;;;;5015319;28;19909;-84
2022/04/27 05:10:07;;;;;;;;;;;4.90;99.90;;;;;;4999833;28;19919;-83
2022/04/27 05:12:36;;;;;;;;;;;4.80;99.90;;;;;;5014889;28;19928;-83
2022/04/27 05:15:01;;;;;;;;;;;4.90;99.90;;;;;;5014858;28;19914;-83
2022/04/27 05:17:27;;;;;;;;;;;4.90;99.90;;;;;;5014745;28;19943;-83
2022/04/27 05:19:53;;;;;;;;;;;5.00;99.90;;;;;;5030473;28;19944;-83
2022/04/27 05:22:19;;;;;;;;;;;5.10;99.90;;;;;;5030679;28;19909;-83
2022/04/27 05:24:44;;;;;;;;;;;5.20;99.90;;;;;;5030551;28;19917;-83
2022/04/27 05:27:10;;;;;;;;;;;5.30;99.90;;;;;;5030855;28;19921;-83
2022/04/27 05:32:20;;;;;;;;;;;5.50;99.90;;;;;;5031851;28;19983;-84
2022/04/27 05:34:45;;;;;;;;;;;5.70;99.90;;;;;;5014220;28;20372;-83
2022/04/27 05:37:12;;;;;;;;;;;5.80;99.90;;;;;;5014259;28;20372;-84
2022/04/27 05:39:38;;;;;;;;;;;5.90;99.90;;;;;;4997700;28;19983;-83
2022/04/27 05:42:03;;;;;;;;;;;6.00;99.90;;;;;;5013607;28;19957;-84
2022/04/27 05:44:29;;;;;;;;;;;6.10;99.90;;;;;;4998033;28;19951;-84
2022/04/27 05:46:55;;;;;;;;;;;6.10;99.90;;;;;;4996419;28;19924;-83
2022/04/27 05:49:21;;;;;;;;;;;6.20;99.90;;;;;;5029980;28;19921;-84
2022/04/27 05:51:47;;;;;;;;;;;6.30;99.90;;;;;;5015556;28;19913;-83
2022/04/27 05:54:16;;;;;;;;;;;6.50;99.90;;;;;;4994447;28;20291;-84
2022/04/27 05:56:42;;;;;;;;;;;6.60;99.90;;;;;;5010574;28;19909;-84
2022/04/27 05:59:08;;;;;;;;;;;6.70;99.90;;;;;;5006672;28;19952;-83
2022/04/27 06:01:34;;;;;;;;;;;6.80;99.90;;;;;;4996740;28;19924;-83
2022/04/27 06:03:59;;;;;;;;;;;6.80;99.90;;;;;;5047376;28;19913;-83
2022/04/27 06:06:25;;;;;;;;;;;6.90;99.90;;;;;;4998576;28;20036;-85
2022/04/27 06:08:51;;;;;;;;;;;6.90;99.90;;;;;;4988172;28;19917;-84
2022/04/27 06:11:19;;;;;;;;;;;7.00;99.90;;;;;;5013908;28;20038;-83
2022/04/27 06:13:48;;;;;;;;;;;7.10;99.90;;;;;;5048322;28;19913;-84
2022/04/27 06:16:14;;;;;;;;;;;7.10;99.90;;;;;;5013244;28;19923;-83
2022/04/27 06:18:40;;;;;;;;;;;7.20;99.90;;;;;;4997861;28;19917;-84
2022/04/27 06:21:06;;;;;;;;;;;7.30;99.90;;;;;;4997750;28;20028;-84
2022/04/27 06:23:33;;;;;;;;;;;7.40;99.90;;;;;;4998138;28;19921;-84
2022/04/27 06:25:58;;;;;;;;;;;7.50;99.90;;;;;;5031010;28;19913;-83
2022/04/27 06:28:24;;;;;;;;;;;7.60;99.90;;;;;;4998485;28;19913;-83
2022/04/27 06:30:50;;;;;;;;;;;7.70;99.90;;;;;;4997668;28;19921;-84
2022/04/27 06:35:46;;;;;;;;;;;8.00;99.90;;;;;;5096121;23;19959;-85
2022/04/27 06:38:11;;;;;;;;;;;8.20;99.90;;;;;;5075045;28;19913;-89
2022/04/27 06:40:37;;;;;;;;;;;8.40;99.90;;;;;;5044812;28;19931;-85
2022/04/27 06:43:02;;;;;;;;;;;8.50;99.90;;;;;;5070028;28;19919;-87
2022/04/27 06:45:28;;;;;;;;;;;8.60;99.90;;;;;;5109980;28;19912;-85
2022/04/27 06:47:54;;;;;;;;;;;8.70;99.90;;;;;;5076944;28;19916;-88
2022/04/27 06:50:20;;;;;;;;;;;8.70;99.90;;;;;;5068352;28;20443;-85
2022/04/27 06:52:46;;;;;;;;;;;8.80;99.90;;;;;;5073712;28;19956;-86
2022/04/27 06:55:11;;;;;;;;;;;8.90;99.90;;;;;;5085331;28;19963;-85
2022/04/27 06:57:37;;;;;;;;;;;9.10;99.90;;;;;;5094474;28;19978;-85
2022/04/27 07:00:03;;;;;;;;;;;9.20;99.90;;;;;;5076613;28;20392;-87
2022/04/27 07:02:28;;;;;;;;;;;9.40;99.90;;;;;;5077354;28;19959;-86
2022/04/27 07:04:59;;;;;;;;;;;9.60;99.90;;;;;;5077539;28;19940;-85
2022/04/27 07:07:25;;;;;;;;;;;9.70;99.90;;;;;;5094988;28;19934;-85
2022/04/27 07:09:51;;;;;;;;;;;9.80;99.90;;;;;;5092211;28;19914;-85
2022/04/27 07:12:16;;;;;;;;;;;10.00;99.90;;;;;;5094773;28;19912;-86
2022/04/27 07:14:42;;;;;;;;;;;10.00;99.90;;;;;;5072630;28;20398;-85
2022/04/27 07:17:07;;;;;;;;;;;10.00;99.90;;;;;;5058190;28;19912;-85
2022/04/27 07:19:33;;;;;;;;;;;9.90;99.90;;;;;;5074708;28;19917;-85
2022/04/27 07:21:59;;;;;;;;;;;9.90;99.90;;;;;;5096541;28;20161;-85
2022/04/27 07:24:25;;;;;;;;;;;9.90;99.90;;;;;;5073334;28;20506;-85
2022/04/27 07:26:51;;;;;;;;;;;10.00;99.90;;;;;;5057747;28;19913;-85
2022/04/27 07:29:16;;;;;;;;;;;10.20;99.90;;;;;;5062178;28;19916;-85
2022/04/27 07:31:42;;;;;;;;;;;10.40;99.90;;;;;;5062622;28;19916;-86
2022/04/27 07:34:07;;;;;;;;;;;10.60;99.90;;;;;;5078758;28;20352;-85
2022/04/27 07:36:33;;;;;;;;;;;10.70;99.90;;;;;;5079308;28;19924;-87
2022/04/27 07:38:58;;;;;;;;;;;10.70;99.90;;;;;;5083721;28;19919;-86
2022/04/27 07:41:24;;;;;;;;;;;10.90;99.90;;;;;;5080920;28;20600;-85
2022/04/27 07:43:49;;;;;;;;;;;11.00;99.90;;;;;;5092397;28;20265;-86
2022/04/27 07:46:15;;;;;;;;;;;11.20;99.90;;;;;;5099769;28;19943;-85
2022/04/27 07:48:40;;;;;;;;;;;11.50;99.90;;;;;;5070859;28;19987;-86
2022/04/27 07:51:06;;;;;;;;;;;11.80;99.90;;;;;;5063431;28;19969;-86
2022/04/27 07:53:32;;;;;;;;;;;12.00;99.90;;;;;;5063449;28;20015;-86
2022/04/27 07:55:57;;;;;;;;;;;11.90;99.90;;;;;;5083042;28;19912;-86
2022/04/27 07:58:23;;;;;;;;;;;11.70;99.90;;;;;;5097753;28;19928;-85
2022/04/27 08:00:49;;;;;;;;;;;11.60;99.90;;;;;;5097852;28;19919;-85
2022/04/27 08:03:14;;;;;;;;;;;11.50;99.90;;;;;;5081259;28;19942;-85
2022/04/27 08:05:40;;;;;;;;;;;11.40;99.90;;;;;;5081068;28;20368;-85
2022/04/27 08:08:06;;;;;;;;;;;11.20;99.90;;;;;;5073350;28;19992;-86
2022/04/27 08:10:31;;;;;;;;;;;11.10;99.90;;;;;;5077774;28;19913;-86
2022/04/27 08:12:57;;;;;;;;;;;11.10;99.90;;;;;;5061278;28;20517;-85
2022/04/27 08:15:24;;;;;;;;;;;11.20;99.90;;;;;;5060731;28;19924;-86
2022/04/27 08:18:00;;;;;;;;;;;11.30;99.90;;;;;;5077962;28;19919;-86
2022/04/27 08:23:11;;;;;;;;;;;11.80;99.90;;;;;;5078039;28;19920;-85
2022/04/27 08:25:37;;;;;;;;;;;12.00;99.90;;;;;;5076393;28;19919;-85
2022/04/27 08:28:08;;;;;;;;;;;12.20;99.90;;;;;;5074021;28;19925;-86
2022/04/27 08:30:35;;;;;;;;;;;12.20;99.90;;;;;;5077102;28;19948;-86
2022/04/27 08:33:00;;;;;;;;;;;12.10;99.90;;;;;;5076720;28;20377;-86
2022/04/27 08:35:29;;;;;;;;;;;12.10;99.90;;;;;;5077424;28;20015;-85
2022/04/27 08:37:55;;;;;;;;;;;12.10;99.90;;;;;;5093804;28;20236;-86
2022/04/27 08:40:21;;;;;;;;;;;12.10;99.90;;;;;;5059043;28;19916;-88
2022/04/27 08:42:48;;;;;;;;;;;12.20;99.90;;;;;;5059610;28;19913;-85
2022/04/27 08:45:13;;;;;;;;;;;12.40;99.90;;;;;;5077236;28;20385;-86
2022/04/27 08:47:39;;;;;;;;;;;12.60;99.90;;;;;;5061340;28;19916;-86
2022/04/27 08:50:15;;;;;;;;;;;12.70;99.90;;;;;;5079082;28;19920;-86
2022/04/27 08:52:41;;;;;;;;;;;12.90;99.90;;;;;;5097123;28;19958;-85
2022/04/27 08:55:07;;;;;;;;;;;13.10;99.90;;;;;;5086507;28;20374;-86
2022/04/27 08:57:32;;;;;;;;;;;13.10;99.90;;;;;;5077842;28;19912;-86
2022/04/27 08:59:58;;;;;;;;;;;13.30;99.90;;;;;;5096905;28;20376;-85
2022/04/27 09:02:27;;;;;;;;;;;13.40;99.90;;;;;;5081558;28;19920;-85
2022/04/27 09:05:19;;;;;;;;;;;13.60;99.90;;;;;;5098398;28;19950;-85
2022/04/27 09:07:46;;;;;;;;;;;13.80;99.90;;;;;;5098038;28;19969;-85
2022/04/27 09:10:15;;;;;;;;;;;13.60;99.90;;;;;;5075477;28;20096;-85
2022/04/27 09:12:44;;;;;;;;;;;13.30;99.90;;;;;;5060572;28;19920;-85
2022/04/27 09:15:10;;;;;;;;;;;13.00;99.90;;;;;;5079038;28;19915;-85
2022/04/27 09:23:06;;;;;;;;;;;13.50;99.90;;;;;;5101772;28;20411;-85
2022/04/27 09:25:35;;;;;;;;;;;13.90;99.90;;;;;;5080433;28;19920;-85
2022/04/27 09:28:02;;;;;;;;;;;14.20;99.90;;;;;;5081260;28;19955;-85
2022/04/27 09:30:28;;;;;;;;;;;14.30;99.90;;;;;;5068690;28;19916;-87
2022/04/27 09:32:54;;;;;;;;;;;14.30;99.90;;;;;;5098526;28;20691;-85
2022/04/27 09:35:29;;;;;;;;;;;14.10;99.90;;;;;;5099478;28;20296;-86
2022/04/27 09:37:54;;;;;;;;;;;14.10;99.90;;;;;;5098909;28;19930;-87
2022/04/27 09:40:20;;;;;;;;;;;14.00;99.90;;;;;;5081883;28;19920;-85
2022/04/27 09:42:46;;;;;;;;;;;14.00;99.90;;;;;;5080021;28;19919;-86
2022/04/27 09:45:29;;;;;;;;;;;14.10;99.90;;;;;;5078028;28;19917;-85
2022/04/27 09:48:01;;;;;;;;;;;14.10;99.90;;;;;;5078161;28;19916;-86
2022/04/27 09:50:44;;;;;;;;;;;14.10;99.90;;;;;;5062647;28;19931;-86
2022/04/27 09:53:10;;;;;;;;;;;14.10;99.90;;;;;;5086692;28;20323;-85
2022/04/27 09:55:37;;;;;;;;;;;14.10;99.90;;;;;;5084632;28;19912;-87
2022/04/27 09:58:04;;;;;;;;;;;14.20;99.90;;;;;;5085199;28;19916;-88
2022/04/27 10:00:30;;;;;;;;;;;14.00;99.90;;;;;;5102514;28;19942;-85
2022/04/27 10:02:56;;;;;;;;;;;14.20;99.90;;;;;;5100727;28;19919;-86
2022/04/27 10:05:22;;;;;;;;;;;14.40;99.90;;;;;;5092535;28;20316;-86
2022/04/27 10:07:48;;;;;;;;;;;14.60;98.10;;;;;;5062532;28;19913;-87
2022/04/27 10:10:16;;;;;;;;;;;14.50;94.60;;;;;;5092623;28;20394;-85
2022/04/27 10:12:41;;;;;;;;;;;14.50;97.90;;;;;;5079645;28;19908;-87
2022/04/27 10:15:08;;;;;;;;;;;14.40;95.70;;;;;;5079612;28;19980;-87
2022/04/27 10:17:34;;;;;;;;;;;14.20;96.50;;;;;;5080500;28;19912;-88
2022/04/27 10:19:59;;;;;;;;;;;14.00;96.60;;;;;;5078905;28;19965;-88
2022/04/27 10:22:32;;;;;;;;;;;13.80;97.30;;;;;;5064905;28;19951;-85
2022/04/27 10:25:05;;;;;;;;;;;13.70;99.90;;;;;;5063504;28;20288;-84
2022/04/27 10:27:36;;;;;;;;;;;14.10;99.90;;;;;;5080157;28;19909;-87
2022/04/27 10:30:11;;;;;;;;;;;14.40;99.90;;;;;;5097763;28;19939;-85
2022/04/27 10:32:51;;;;;;;;;;;14.90;99.90;;;;;;5099678;28;19909;-84
2022/04/27 10:35:27;;;;;;;;;;;15.20;95.00;;;;;;5098944;28;19920;-85
2022/04/27 10:37:59;;;;;;;;;;;15.60;96.80;;;;;;5099630;28;19912;-85
2022/04/27 10:40:30;;;;;;;;;;;15.90;92.30;;;;;;5098983;28;19922;-85
2022/04/27 10:43:02;;;;;;;;;;;16.00;95.90;;;;;;5100631;28;19908;-86
2022/04/27 10:45:28;;;;;;;;;;;16.10;90.00;;;;;;5102095;28;19908;-87
2022/04/27 10:47:54;;;;;;;;;;;15.90;88.80;;;;;;5084226;28;19917;-89
2022/04/27 10:50:20;;;;;;;;;;;15.80;88.60;;;;;;5100851;28;19919;-86
2022/04/27 10:52:52;;;;;;;;;;;15.90;94.40;;;;;;5102250;28;19952;-86
2022/04/27 10:55:33;;;;;;;;;;;16.00;90.70;;;;;;5100377;28;19908;-86
2022/04/27 10:58:11;;;;;;;;;;;16.00;88.50;;;;;;5085355;28;19940;-87
2022/04/27 11:00:56;;;;;;;;;;;16.00;94.80;;;;;;5095867;28;19912;-87
2022/04/27 11:03:22;;;;;;;;;;;16.00;90.40;;;;;;5105795;28;19912;-86
2022/04/27 11:05:49;;;;;;;;;;;15.60;86.00;;;;;;5092873;28;19957;-86
2022/04/27 11:08:35;;;;;;;;;;;15.30;85.60;;;;;;5109320;28;19927;-89
2022/04/27 11:11:03;;;;;;;;;;;15.30;92.30;;;;;;5075966;28;19912;-85
2022/04/27 11:13:35;;;;;;;;;;;15.60;94.10;;;;;;5106291;28;19923;-88
2022/04/27 11:16:11;;;;;;;;;;;15.90;90.70;;;;;;5109005;28;19975;-86
2022/04/27 11:18:49;;;;;;;;;;;16.30;83.90;;;;;;5110948;28;20409;-88
2022/04/27 11:21:19;;;;;;;;;;;16.40;80.90;;;;;;5111185;28;19956;-87
2022/04/27 11:23:45;;;;;;;;;;;16.10;84.00;;;;;;5099266;28;19912;-86
2022/04/27 11:26:11;;;;;;;;;;;16.10;89.20;;;;;;5088817;28;19912;-88
2022/04/27 11:28:40;;;;;;;;;;;16.10;79.40;;;;;;5100912;28;20027;-86
2022/04/27 11:31:06;;;;;;;;;;;16.00;81.50;;;;;;5106770;28;19912;-86
2022/04/27 11:33:31;;;;;;;;;;;15.80;85.80;;;;;;5090577;28;19943;-86
2022/04/27 11:35:57;;;;;;;;;;;15.50;84.30;;;;;;5106069;28;19930;-86
2022/04/27 11:38:33;;;;;;;;;;;15.30;87.30;;;;;;5104180;28;20423;-86
2022/04/27 11:40:58;;;;;;;;;;;15.50;92.60;;;;;;5106309;28;19947;-84
2022/04/27 11:43:24;;;;;;;;;;;15.90;85.90;;;;;;5103455;28;20014;-86
2022/04/27 11:45:50;;;;;;;;;;;16.20;79.10;;;;;;5104979;28;19908;-85
2022/04/27 11:48:18;;;;;;;;;;;16.20;74.10;;;;;;5104480;28;19916;-87
2022/04/27 11:50:44;;;;;;;;;;;16.10;72.10;;;;;;5088614;28;19942;-86
2022/04/27 11:53:13;;;;;;;;;;;15.90;72.20;;;;;;5105112;28;19916;-87
2022/04/27 11:55:39;;;;;;;;;;;16.00;89.00;;;;;;5103734;28;19915;-85
2022/04/27 11:58:05;;;;;;;;;;;16.20;84.70;;;;;;5104611;28;19908;-86
2022/04/27 12:00:31;;;;;;;;;;;16.30;72.50;;;;;;5104218;28;19963;-85
2022/04/27 12:03:03;;;;;;;;;;;16.00;71.00;;;;;;5088203;28;19916;-86
2022/04/27 12:05:38;;;;;;;;;;;15.80;77.00;;;;;;5105595;28;20345;-88
2022/04/27 12:08:10;;;;;;;;;;;15.80;91.00;;;;;;5106396;28;20208;-88
2022/04/27 12:10:40;;;;;;;;;;;16.20;88.50;;;;;;5105176;28;20012;-85
2022/04/27 12:13:06;;;;;;;;;;;16.70;79.80;;;;;;5088535;28;19916;-85
2022/04/27 12:15:32;;;;;;;;;;;16.90;77.00;;;;;;5104700;28;19923;-86
2022/04/27 12:17:58;;;;;;;;;;;16.90;74.00;;;;;;5100468;28;20025;-85
2022/04/27 12:20:34;;;;;;;;;;;16.80;71.10;;;;;;5099671;28;20015;-86
2022/04/27 12:23:02;;;;;;;;;;;16.80;76.30;;;;;;5099435;28;21949;-86
2022/04/27 12:25:37;;;;;;;;;;;16.70;73.30;;;;;;5100870;28;20383;-85
2022/04/27 12:28:06;;;;;;;;;;;17.00;69.80;;;;;;5101380;28;19915;-85
2022/04/27 12:30:54;;;;;;;;;;;17.20;73.40;;;;;;5083913;28;19915;-86
2022/04/27 12:33:26;;;;;;;;;;;17.00;66.70;;;;;;5078565;28;19908;-85
2022/04/27 12:38:38;;;;;;;;;;;16.70;64.00;;;;;;5033587;28;19948;-81
2022/04/27 12:41:03;;;;;;;;;;;16.30;62.00;;;;;;5032221;28;19956;-81
2022/04/27 12:43:29;;;;;;;;;;;16.00;71.20;;;;;;5032006;28;20415;-81
2022/04/27 12:46:11;;;;;;;;;;;15.90;76.60;;;;;;5032122;28;19909;-82
2022/04/27 12:48:39;;;;;;;;;;;15.90;71.30;;;;;;5026346;28;19967;-84
2022/04/27 12:51:07;;;;;;;;;;;15.90;70.90;;;;;;5012236;28;20577;-83
2022/04/27 12:53:33;;;;;;;;;;;15.80;69.80;;;;;;5004408;28;19941;-82
2022/04/27 12:56:06;;;;;;;;;;;15.70;68.90;;;;;;5024927;28;19972;-85
2022/04/27 12:58:32;;;;;;;;;;;15.60;69.70;;;;;;5021443;28;19913;-82
2022/04/27 13:01:01;;;;;;;;;;;15.50;67.90;;;;;;5005230;28;19928;-81
2022/04/27 13:03:29;;;;;;;;;;;15.60;68.20;;;;;;5031719;28;19916;-82
2022/04/27 13:05:56;;;;;;;;;;;15.80;70.40;;;;;;5015193;28;20307;-81
2022/04/27 13:08:22;;;;;;;;;;;16.30;75.20;;;;;;5014866;28;20004;-82
2022/04/27 13:13:34;;;;;;;;;;;17.50;61.40;;;;;;5033270;28;19955;-81
2022/04/27 13:16:00;;;;;;;;;;;17.50;59.20;;;;;;4999659;28;20376;-83
2022/04/27 13:18:26;;;;;;;;;;;17.20;57.80;;;;;;5013775;28;20002;-82
2022/04/27 13:20:51;;;;;;;;;;;16.90;59.10;;;;;;5031205;28;19913;-83
2022/04/27 13:23:17;;;;;;;;;;;16.50;59.50;;;;;;5014983;28;19909;-82
2022/04/27 13:25:43;;;;;;;;;;;16.40;59.80;;;;;;5030987;28;19909;-82
2022/04/27 13:28:09;;;;;;;;;;;16.30;61.00;;;;;;5014620;28;19967;-82
2022/04/27 13:30:35;;;;;;;;;;;16.40;61.70;;;;;;5017307;28;19910;-82
2022/04/27 13:33:01;;;;;;;;;;;16.30;65.50;;;;;;5011185;28;19932;-82
2022/04/27 13:35:26;;;;;;;;;;;16.30;68.60;;;;;;5012453;28;19922;-84
2022/04/27 13:37:52;;;;;;;;;;;16.30;68.80;;;;;;5010823;28;19909;-82
2022/04/27 13:40:18;;;;;;;;;;;16.40;67.90;;;;;;4994586;28;20063;-82
2022/04/27 13:42:43;;;;;;;;;;;16.40;63.70;;;;;;5011146;28;20295;-82
2022/04/27 13:45:10;;;;;;;;;;;16.40;65.10;;;;;;4994599;28;19916;-81
2022/04/27 13:47:37;;;;;;;;;;;16.30;63.50;;;;;;4994604;28;20277;-82
2022/04/27 13:50:03;;;;;;;;;;;16.30;63.70;;;;;;5010608;28;19996;-82
2022/04/27 13:52:30;;;;;;;;;;;16.50;64.10;;;;;;4995462;28;19914;-81
2022/04/27 13:54:55;;;;;;;;;;;16.80;66.50;;;;;;4986702;28;19921;-82
2022/04/27 13:57:21;;;;;;;;;;;16.90;66.20;;;;;;5010826;28;19959;-82
2022/04/27 13:59:47;;;;;;;;;;;17.10;60.90;;;;;;5011042;28;19953;-82
2022/04/27 14:02:13;;;;;;;;;;;17.10;60.80;;;;;;4994334;28;19920;-82
2022/04/27 14:04:40;;;;;;;;;;;17.10;59.00;;;;;;4977996;28;20012;-81
2022/04/27 14:07:05;;;;;;;;;;;17.00;56.60;;;;;;5008689;28;19924;-82
2022/04/27 14:09:31;;;;;;;;;;;17.00;55.50;;;;;;4994139;28;19913;-82
2022/04/27 14:14:40;;;;;;;;;;;16.80;56.30;;;;;;5011275;28;19920;-82
2022/04/27 14:19:50;;;;;;;;;;;16.90;56.90;;;;;;5010741;28;20438;-82
2022/04/27 14:22:16;;;;;;;;;;;17.00;56.80;;;;;;5010265;28;19913;-81
2022/04/27 14:24:41;;;;;;;;;;;17.20;58.10;;;;;;5010496;28;20332;-81
2022/04/27 14:27:07;;;;;;;;;;;17.40;57.80;;;;;;5011296;28;20474;-82
2022/04/27 14:29:33;;;;;;;;;;;17.50;56.90;;;;;;4998985;28;19919;-83
2022/04/27 14:32:01;;;;;;;;;;;17.60;56.10;;;;;;5011657;28;19949;-81
2022/04/27 14:34:30;;;;;;;;;;;17.50;57.90;;;;;;5013754;28;19921;-82
2022/04/27 14:36:58;;;;;;;;;;;17.50;57.40;;;;;;5027718;28;19928;-81
2022/04/27 14:39:24;;;;;;;;;;;17.40;57.30;;;;;;5012924;28;19960;-81
2022/04/27 14:41:51;;;;;;;;;;;17.30;57.60;;;;;;4999877;28;19941;-82
2022/04/27 14:44:17;;;;;;;;;;;17.40;59.40;;;;;;5013101;28;20379;-81
2022/04/27 14:46:42;;;;;;;;;;;17.60;56.50;;;;;;5031796;28;19932;-80
2022/04/27 14:49:08;;;;;;;;;;;17.80;56.50;;;;;;5014798;28;19913;-80
2022/04/27 14:51:34;;;;;;;;;;;17.80;55.80;;;;;;5012754;28;20370;-82
2022/04/27 14:53:59;;;;;;;;;;;17.80;57.90;;;;;;5029675;28;20406;-83
2022/04/27 14:56:25;;;;;;;;;;;17.90;56.90;;;;;;5029093;28;20437;-81
2022/04/27 14:58:50;;;;;;;;;;;17.80;54.80;;;;;;5012965;28;19917;-81
2022/04/27 15:01:16;;;;;;;;;;;17.70;55.60;;;;;;5010778;28;19921;-81